Terminal Aerodrome Forecast
Issued by NWS Kansas City/Pleasant Hill, MO

Home | Current Version | Previous Version | Text Only | Print | Product List | Glossary On
Versions: 1 2 3 4 5 6 7 8 9 10 11 12 13 14 15 16 17 18 19
000
FTUS43 KEAX 021100
TAFMCI
TAF
KMCI 021127Z 0212/0312 VRB03KT P6SM SCT100
     FM021600 12009KT P6SM SCT200
     FM030000 14012KT 6SM BR VCSH OVC012=

USA.gov is the U.S. government's official web portal to all federal, state and local government web resources and services.